createdAt,value
2019-01-24T00:00:25.811Z,53.23
2019-01-24T00:01:08.489Z,51.92
2019-01-24T00:01:41.656Z,53.58
2019-01-24T00:02:14.734Z,54.13
2019-01-24T00:02:47.821Z,53.05
2019-01-24T00:03:22.239Z,51.85
2019-01-24T00:03:56.387Z,53.87
2019-01-24T00:04:29.463Z,52.03
2019-01-24T00:05:03.946Z,52.45
2019-01-24T00:05:37.047Z,51.80
2019-01-24T00:06:10.177Z,52.33
2019-01-24T00:06:43.118Z,52.13
2019-01-24T00:07:16.147Z,49.60
2019-01-24T00:07:49.386Z,53.25
2019-01-24T00:08:22.570Z,52.73
2019-01-24T00:08:55.641Z,50.23
2019-01-24T00:09:28.823Z,50.60
2019-01-24T00:10:02.109Z,51.65
2019-01-24T00:10:35.138Z,51.63
2019-01-24T00:11:08.175Z,52.50
2019-01-24T00:11:41.439Z,54.60
2019-01-24T00:12:14.501Z,54.60
2019-01-24T00:12:47.683Z,52.30
2019-01-24T00:13:21.159Z,50.92
2019-01-24T00:13:54.131Z,53.58
2019-01-24T00:14:27.382Z,50.85
2019-01-24T00:15:00.425Z,54.30
2019-01-24T00:15:33.555Z,52.50
2019-01-24T00:16:06.690Z,51.60
2019-01-24T00:16:39.856Z,53.33
2019-01-24T00:17:13.385Z,51.83
2019-01-24T00:17:46.545Z,54.77
2019-01-24T00:18:19.711Z,53.73
2019-01-24T00:18:52.808Z,54.23
2019-01-24T00:19:25.845Z,51.18
2019-01-24T00:19:59.023Z,51.53
2019-01-24T00:20:32.081Z,52.27
2019-01-24T00:21:06.231Z,53.13
2019-01-24T00:21:39.421Z,49.23
2019-01-24T00:22:12.396Z,53.52
2019-01-24T00:22:46.469Z,54.77
2019-01-24T00:23:19.550Z,51.60
2019-01-24T00:23:52.770Z,49.35
2019-01-24T00:24:25.905Z,54.13
2019-01-24T00:24:58.889Z,51.28
2019-01-24T00:25:32.045Z,53.98
2019-01-24T00:26:05.379Z,53.15
2019-01-24T00:26:41.387Z,52.30
2019-01-24T00:27:14.386Z,54.15
2019-01-24T00:27:47.546Z,51.98
2019-01-24T00:28:20.689Z,52.23
2019-01-24T00:28:53.636Z,51.30
2019-01-24T00:29:26.658Z,53.33
2019-01-24T00:29:59.690Z,53.30
2019-01-24T00:30:33.704Z,50.30
2019-01-24T00:31:06.736Z,51.45
2019-01-24T00:31:39.736Z,54.08
2019-01-24T00:32:12.668Z,51.95
2019-01-24T00:32:45.774Z,50.75
2019-01-24T00:33:18.802Z,55.35
2019-01-24T00:33:51.704Z,55.03
2019-01-24T00:34:24.780Z,52.45
2019-01-24T00:34:57.772Z,53.75
2019-01-24T00:35:30.722Z,54.10
2019-01-24T00:36:03.992Z,54.63
2019-01-24T00:36:37.042Z,50.43
2019-01-24T00:37:10.144Z,49.90
2019-01-24T00:37:43.281Z,53.13
2019-01-24T00:38:16.372Z,50.38
2019-01-24T00:38:49.426Z,52.35
2019-01-24T00:39:22.797Z,50.45
2019-01-24T00:39:55.894Z,54.20
2019-01-24T00:40:29.013Z,49.75
2019-01-24T00:41:02.141Z,52.35
2019-01-24T00:41:35.307Z,50.45
2019-01-24T00:42:08.331Z,52.88
2019-01-24T00:42:41.332Z,52.50
2019-01-24T00:43:15.668Z,51.90
2019-01-24T00:43:48.680Z,47.13
2019-01-24T00:44:21.794Z,47.78
2019-01-24T00:44:54.960Z,49.90
2019-01-24T00:45:28.094Z,49.55
2019-01-24T00:46:03.122Z,49.65
2019-01-24T00:46:36.270Z,50.85
2019-01-24T00:47:09.502Z,53.05
2019-01-24T00:47:42.656Z,53.35
2019-01-24T00:48:15.814Z,54.93
2019-01-24T00:48:48.834Z,53.87
2019-01-24T00:49:21.883Z,56.28
2019-01-24T00:49:54.939Z,51.90
2019-01-24T00:50:29.112Z,54.20
2019-01-24T00:51:02.146Z,52.62
2019-01-24T00:51:35.182Z,54.55
2019-01-24T00:52:08.280Z,54.83
2019-01-24T00:52:41.824Z,52.65
2019-01-24T00:53:14.752Z,49.95
2019-01-24T00:53:47.806Z,55.20
2019-01-24T00:54:20.859Z,53.75
2019-01-24T00:54:53.962Z,52.58
2019-01-24T00:55:27.016Z,55.52
2019-01-24T00:56:00.060Z,50.78
2019-01-24T00:56:33.119Z,52.62
2019-01-24T00:57:06.187Z,52.48
2019-01-24T00:57:39.350Z,50.98
2019-01-24T00:58:12.504Z,53.55
2019-01-24T00:58:45.537Z,52.62
2019-01-24T00:59:18.546Z,53.60
2019-01-24T00:59:51.602Z,54.18
2019-01-24T01:00:25.002Z,55.30
2019-01-24T01:00:58.116Z,52.43
2019-01-24T01:01:31.107Z,53.45
2019-01-24T01:02:04.326Z,54.77
2019-01-24T01:02:37.403Z,51.98
2019-01-24T01:03:10.540Z,52.00
2019-01-24T01:03:43.650Z,55.65
2019-01-24T01:04:16.648Z,52.88
2019-01-24T01:04:49.684Z,52.33
2019-01-24T01:05:24.304Z,52.35
2019-01-24T01:05:57.327Z,52.78
2019-01-24T01:06:30.480Z,56.80
2019-01-24T01:07:03.797Z,50.98
2019-01-24T01:07:36.852Z,52.75
2019-01-24T01:08:10.986Z,54.15
2019-01-24T01:08:44.153Z,56.37
2019-01-24T01:09:17.180Z,53.23
2019-01-24T01:09:50.130Z,53.70
2019-01-24T01:10:23.240Z,55.12
2019-01-24T01:10:57.524Z,52.58
2019-01-24T01:11:33.360Z,50.20
2019-01-24T01:12:06.780Z,54.13
2019-01-24T01:12:39.892Z,49.80
2019-01-24T01:13:13.000Z,59.13
2019-01-24T01:13:45.900Z,51.30
2019-01-24T01:14:18.922Z,55.60
2019-01-24T01:14:51.832Z,55.30
2019-01-24T01:15:24.858Z,56.42
2019-01-24T01:15:59.450Z,54.65
2019-01-24T01:16:32.624Z,55.23
2019-01-24T01:17:05.753Z,52.67
2019-01-24T01:17:38.760Z,54.70
2019-01-24T01:18:11.924Z,55.67
2019-01-24T01:18:45.066Z,54.38
2019-01-24T01:19:18.116Z,54.98
2019-01-24T01:19:51.140Z,53.68
2019-01-24T01:20:24.902Z,51.08
2019-01-24T01:20:57.930Z,54.38
2019-01-24T01:21:31.016Z,52.35
2019-01-24T01:22:04.352Z,49.42
2019-01-24T01:22:37.344Z,52.83
2019-01-24T01:23:10.370Z,52.85
2019-01-24T01:23:43.405Z,54.42
2019-01-24T01:24:16.414Z,56.42
2019-01-24T01:24:49.468Z,54.73
2019-01-24T01:25:22.520Z,53.55
2019-01-24T01:25:55.545Z,54.55
2019-01-24T01:26:28.688Z,52.65
2019-01-24T01:27:01.726Z,52.60
2019-01-24T01:27:34.950Z,53.73
2019-01-24T01:28:08.060Z,51.33
2019-01-24T01:28:41.095Z,52.73
2019-01-24T01:29:14.050Z,52.70
2019-01-24T01:29:47.127Z,52.58
2019-01-24T01:30:22.671Z,55.43
2019-01-24T01:30:55.722Z,49.80
2019-01-24T01:31:28.820Z,52.45
2019-01-24T01:32:01.881Z,50.45
2019-01-24T01:32:34.983Z,53.25
2019-01-24T01:33:07.976Z,54.30
2019-01-24T01:33:40.906Z,56.45
2019-01-24T01:34:13.931Z,51.13
2019-01-24T01:34:46.868Z,52.67
2019-01-24T01:35:20.226Z,51.55
2019-01-24T01:35:53.299Z,53.17
2019-01-24T01:36:26.248Z,51.33
2019-01-24T01:36:59.357Z,52.15
2019-01-24T01:37:32.300Z,54.70
2019-01-24T01:38:05.413Z,53.68
2019-01-24T01:38:38.347Z,54.15
2019-01-24T01:39:11.923Z,50.58
2019-01-24T01:39:44.956Z,54.53
2019-01-24T01:40:18.720Z,49.90
2019-01-24T01:40:51.775Z,50.55
2019-01-24T01:41:25.134Z,52.55
2019-01-24T01:41:58.169Z,51.50
2019-01-24T01:42:31.351Z,55.05
2019-01-24T01:43:04.696Z,52.50
2019-01-24T01:43:37.702Z,52.67
2019-01-24T01:44:10.744Z,53.10
2019-01-24T01:44:43.781Z,51.37
2019-01-24T01:45:19.802Z,55.12
2019-01-24T01:45:52.924Z,54.40
2019-01-24T01:46:25.975Z,52.10
2019-01-24T01:47:00.170Z,53.23
2019-01-24T01:47:33.227Z,54.98
2019-01-24T01:48:06.343Z,52.78
2019-01-24T01:48:39.285Z,54.05
2019-01-24T01:49:12.364Z,53.33
2019-01-24T01:49:45.511Z,55.78
2019-01-24T01:50:21.360Z,54.73
2019-01-24T01:50:55.392Z,53.75
2019-01-24T01:51:28.400Z,53.83
2019-01-24T01:52:01.431Z,53.98
2019-01-24T01:52:34.443Z,51.85
2019-01-24T01:53:07.593Z,52.40
2019-01-24T01:53:40.619Z,53.78
2019-01-24T01:54:13.453Z,54.98
2019-01-24T01:54:46.629Z,53.85
2019-01-24T01:55:19.746Z,55.15
2019-01-24T01:55:52.899Z,52.85
2019-01-24T01:56:25.909Z,53.73
2019-01-24T01:56:59.027Z,57.45
2019-01-24T01:57:32.140Z,53.33
2019-01-24T01:58:05.176Z,54.20
2019-01-24T01:58:38.152Z,54.88
2019-01-24T01:59:11.107Z,54.88
2019-01-24T01:59:44.179Z,53.23
2019-01-24T02:00:20.619Z,54.40
2019-01-24T02:00:53.757Z,54.15
2019-01-24T02:01:26.819Z,55.98
2019-01-24T02:01:59.849Z,53.52
2019-01-24T02:02:32.805Z,58.60
2019-01-24T02:03:06.965Z,55.08
2019-01-24T02:03:40.265Z,54.18
2019-01-24T02:04:13.339Z,57.67
2019-01-24T02:04:46.403Z,58.83
2019-01-24T02:05:19.573Z,50.73
2019-01-24T02:05:52.548Z,53.55
2019-01-24T02:06:25.619Z,52.20
2019-01-24T02:06:58.705Z,53.95
2019-01-24T02:07:31.812Z,55.15
2019-01-24T02:08:04.998Z,57.95
2019-01-24T02:08:38.239Z,53.65
2019-01-24T02:09:11.387Z,56.40
2019-01-24T02:09:44.739Z,57.05
2019-01-24T02:10:21.120Z,56.02
2019-01-24T02:10:54.139Z,58.95
2019-01-24T02:11:27.328Z,54.00
2019-01-24T02:12:01.237Z,55.30
2019-01-24T02:12:34.309Z,58.50
2019-01-24T02:13:07.367Z,56.68
2019-01-24T02:13:40.679Z,55.63
2019-01-24T02:14:13.728Z,51.90
2019-01-24T02:14:46.820Z,52.98
2019-01-24T02:15:20.305Z,53.83
2019-01-24T02:15:53.339Z,54.45
2019-01-24T02:16:27.985Z,54.95
2019-01-24T02:17:01.039Z,55.92
2019-01-24T02:17:34.135Z,53.23
2019-01-24T02:18:07.201Z,56.42
2019-01-24T02:18:40.271Z,56.70
2019-01-24T02:19:13.334Z,53.60
2019-01-24T02:19:46.539Z,58.33
2019-01-24T02:20:21.693Z,57.25
2019-01-24T02:20:54.758Z,57.58
2019-01-24T02:21:29.218Z,54.10
2019-01-24T02:22:02.427Z,52.85
2019-01-24T02:22:35.409Z,53.55
2019-01-24T02:23:08.571Z,56.42
2019-01-24T02:23:41.859Z,53.38
2019-01-24T02:24:15.004Z,53.68
2019-01-24T02:24:48.219Z,56.98
2019-01-24T02:25:21.546Z,55.65
2019-01-24T02:25:54.759Z,58.58
2019-01-24T02:26:27.968Z,56.50
2019-01-24T02:27:01.049Z,54.53
2019-01-24T02:27:34.117Z,53.65
2019-01-24T02:28:07.158Z,54.75
2019-01-24T02:28:40.367Z,53.58
2019-01-24T02:29:13.396Z,56.65
2019-01-24T02:29:46.448Z,56.28
2019-01-24T02:30:25.864Z,54.42
2019-01-24T02:30:58.829Z,50.78
2019-01-24T02:31:32.081Z,59.48
2019-01-24T02:32:05.302Z,55.68
2019-01-24T02:32:39.398Z,53.70
2019-01-24T02:33:12.525Z,55.75
2019-01-24T02:33:45.577Z,57.73
2019-01-24T02:34:18.689Z,55.23
2019-01-24T02:34:51.795Z,53.17
2019-01-24T02:35:25.010Z,56.63
2019-01-24T02:35:58.193Z,58.08
2019-01-24T02:36:31.255Z,57.85
2019-01-24T02:37:04.390Z,58.75
2019-01-24T02:37:39.144Z,57.55
2019-01-24T02:38:12.209Z,59.90
2019-01-24T02:38:45.383Z,58.50
2019-01-24T02:39:18.455Z,61.55
2019-01-24T02:39:51.483Z,58.40
2019-01-24T02:40:24.663Z,61.10
2019-01-24T02:40:58.918Z,62.88
2019-01-24T02:41:32.097Z,62.45
2019-01-24T02:42:05.255Z,59.83
2019-01-24T02:42:38.282Z,61.37
2019-01-24T02:43:11.241Z,57.73
2019-01-24T02:43:44.233Z,64.12
2019-01-24T02:44:17.333Z,62.38
2019-01-24T02:44:50.421Z,59.08
2019-01-24T02:45:23.913Z,62.27
2019-01-24T02:45:57.099Z,60.00
2019-01-24T02:46:30.360Z,64.75
2019-01-24T02:47:03.385Z,61.30
2019-01-24T02:47:36.482Z,63.52
2019-01-24T02:48:09.679Z,58.05
2019-01-24T02:48:42.559Z,61.25
2019-01-24T02:49:15.630Z,58.87
2019-01-24T02:49:48.702Z,61.90
2019-01-24T02:50:22.079Z,62.05
2019-01-24T02:50:55.148Z,61.45
2019-01-24T02:51:28.365Z,62.73
2019-01-24T02:52:01.399Z,63.20
2019-01-24T02:52:34.597Z,63.87
2019-01-24T02:53:07.675Z,60.40
2019-01-24T02:53:41.943Z,62.38
2019-01-24T02:54:15.028Z,62.93
2019-01-24T02:54:49.625Z,62.05
2019-01-24T02:55:22.717Z,61.75
2019-01-24T02:55:55.889Z,62.05
2019-01-24T02:56:28.953Z,64.75
2019-01-24T02:57:02.258Z,60.25
2019-01-24T02:57:35.312Z,61.25
2019-01-24T02:58:08.393Z,60.35
2019-01-24T02:58:41.338Z,63.33
2019-01-24T02:59:14.384Z,60.80
2019-01-24T02:59:47.452Z,59.90
2019-01-24T03:00:21.988Z,63.17
2019-01-24T03:00:56.649Z,60.98
2019-01-24T03:01:31.069Z,62.43
2019-01-24T03:02:04.347Z,62.33
2019-01-24T03:02:37.525Z,60.88
2019-01-24T03:03:10.621Z,63.90
2019-01-24T03:03:43.719Z,61.90
2019-01-24T03:04:16.796Z,64.37
2019-01-24T03:04:56.642Z,61.88
2019-01-24T03:05:25.011Z,63.87
2019-01-24T03:05:58.107Z,63.58
2019-01-24T03:06:32.031Z,66.00
2019-01-24T03:07:05.091Z,60.88
2019-01-24T03:07:38.052Z,64.10
2019-01-24T03:08:11.151Z,68.42
2019-01-24T03:08:44.099Z,62.98
2019-01-24T03:09:17.182Z,60.95
2019-01-24T03:09:50.255Z,57.78
2019-01-24T03:10:23.327Z,63.17
2019-01-24T03:10:56.416Z,59.53
2019-01-24T03:11:29.827Z,62.70
2019-01-24T03:12:02.979Z,62.75
2019-01-24T03:12:36.019Z,65.55
2019-01-24T03:13:09.208Z,59.85
2019-01-24T03:13:42.240Z,61.68
2019-01-24T03:14:16.605Z,62.48
2019-01-24T03:14:49.599Z,61.80
2019-01-24T03:15:22.746Z,61.73
2019-01-24T03:15:55.883Z,60.88
2019-01-24T03:16:28.929Z,63.35
2019-01-24T03:17:01.947Z,61.65
2019-01-24T03:17:34.993Z,66.67
2019-01-24T03:18:07.998Z,62.50
2019-01-24T03:18:40.955Z,61.98
2019-01-24T03:19:13.951Z,59.83
2019-01-24T03:19:46.983Z,62.60
2019-01-24T03:20:20.027Z,60.05
2019-01-24T03:20:52.995Z,59.58
2019-01-24T03:21:25.999Z,61.45
2019-01-24T03:21:59.090Z,61.73
2019-01-24T03:22:32.091Z,67.97
2019-01-24T03:23:06.739Z,63.25
2019-01-24T03:23:40.876Z,62.50
2019-01-24T03:24:13.895Z,63.13
2019-01-24T03:24:46.809Z,64.30
2019-01-24T03:25:19.966Z,63.87
2019-01-24T03:25:52.987Z,59.65
2019-01-24T03:26:26.296Z,63.00
2019-01-24T03:26:59.400Z,59.80
2019-01-24T03:27:32.499Z,65.42
2019-01-24T03:28:05.595Z,58.50
2019-01-24T03:28:38.675Z,61.30
2019-01-24T03:29:11.656Z,61.55
2019-01-24T03:29:44.671Z,59.80
2019-01-24T03:30:19.959Z,61.20
2019-01-24T03:30:53.198Z,62.15
2019-01-24T03:31:26.199Z,60.85
2019-01-24T03:31:59.247Z,58.73
2019-01-24T03:32:32.169Z,61.10
2019-01-24T03:33:05.278Z,63.35
2019-01-24T03:33:38.189Z,63.55
2019-01-24T03:34:11.342Z,61.25
2019-01-24T03:34:45.476Z,58.20
2019-01-24T03:35:22.810Z,63.87
2019-01-24T03:35:55.743Z,59.00
2019-01-24T03:36:28.962Z,61.85
2019-01-24T03:37:01.972Z,61.15
2019-01-24T03:37:35.182Z,61.28
2019-01-24T03:38:08.187Z,65.03
2019-01-24T03:38:41.134Z,63.85
2019-01-24T03:39:14.261Z,62.08
2019-01-24T03:39:47.338Z,64.95
2019-01-24T03:40:20.440Z,61.80
2019-01-24T03:40:53.522Z,60.80
2019-01-24T03:41:26.553Z,68.50
2019-01-24T03:41:59.653Z,58.45
2019-01-24T03:42:32.655Z,57.95
2019-01-24T03:43:05.802Z,63.05
2019-01-24T03:43:38.816Z,64.70
2019-01-24T03:44:11.956Z,60.63
2019-01-24T03:44:44.959Z,61.63
2019-01-24T03:45:18.084Z,60.52
2019-01-24T03:45:52.194Z,59.53
2019-01-24T03:46:25.332Z,58.48
2019-01-24T03:46:58.333Z,61.65
2019-01-24T03:47:31.366Z,60.00
2019-01-24T03:48:04.490Z,64.15
2019-01-24T03:48:37.426Z,65.03
2019-01-24T03:49:10.449Z,62.00
2019-01-24T03:49:43.420Z,61.77
2019-01-24T03:50:19.212Z,61.53
2019-01-24T03:50:52.256Z,63.60
2019-01-24T03:51:25.280Z,62.13
2019-01-24T03:51:58.531Z,63.48
2019-01-24T03:52:31.324Z,60.70
2019-01-24T03:53:05.430Z,64.32
2019-01-24T03:53:38.352Z,63.38
2019-01-24T03:54:11.547Z,60.15
2019-01-24T03:54:44.445Z,61.02
2019-01-24T03:55:19.601Z,60.67
2019-01-24T03:55:52.656Z,61.10
2019-01-24T03:56:25.690Z,64.30
2019-01-24T03:56:58.702Z,61.50
2019-01-24T03:57:31.864Z,58.87
2019-01-24T03:58:05.058Z,61.37
2019-01-24T03:58:37.990Z,60.92
2019-01-24T03:59:11.370Z,64.35
2019-01-24T03:59:44.425Z,60.38
2019-01-24T04:00:20.629Z,59.00
2019-01-24T04:00:53.577Z,62.38
2019-01-24T04:01:26.692Z,64.22
2019-01-24T04:01:59.768Z,63.20
2019-01-24T04:02:32.800Z,62.98
2019-01-24T04:03:06.851Z,63.42
2019-01-24T04:03:39.852Z,59.67
2019-01-24T04:04:12.942Z,61.02
2019-01-24T04:04:45.951Z,64.15
2019-01-24T04:05:19.188Z,61.23
2019-01-24T04:05:52.176Z,61.13
2019-01-24T04:06:25.205Z,64.90
2019-01-24T04:06:58.222Z,66.00
2019-01-24T04:07:31.288Z,66.02
2019-01-24T04:08:04.441Z,60.40
2019-01-24T04:08:37.661Z,63.35
2019-01-24T04:09:10.741Z,64.60
2019-01-24T04:09:43.882Z,60.55
2019-01-24T04:10:18.573Z,60.92
2019-01-24T04:10:51.512Z,61.50
2019-01-24T04:11:24.566Z,64.62
2019-01-24T04:11:57.686Z,61.40
2019-01-24T04:12:31.003Z,62.85
2019-01-24T04:13:04.326Z,66.45
2019-01-24T04:13:37.420Z,65.60
2019-01-24T04:14:10.489Z,63.35
2019-01-24T04:14:43.641Z,62.17
2019-01-24T04:15:20.260Z,63.45
2019-01-24T04:15:53.331Z,61.05
2019-01-24T04:16:26.435Z,67.30
2019-01-24T04:16:59.517Z,65.12
2019-01-24T04:17:32.562Z,64.82
2019-01-24T04:18:05.971Z,68.07
2019-01-24T04:18:40.658Z,66.70
2019-01-24T04:19:13.825Z,67.17
2019-01-24T04:19:48.409Z,66.00
2019-01-24T04:20:21.582Z,63.10
2019-01-24T04:20:54.658Z,67.92
2019-01-24T04:21:27.723Z,68.87
2019-01-24T04:22:00.762Z,63.63
2019-01-24T04:22:33.900Z,66.25
2019-01-24T04:23:07.122Z,68.52
2019-01-24T04:23:40.199Z,67.08
2019-01-24T04:24:14.750Z,68.87
2019-01-24T04:24:47.804Z,63.38
2019-01-24T04:25:21.078Z,63.75
2019-01-24T04:25:55.702Z,69.55
2019-01-24T04:26:28.772Z,66.33
2019-01-24T04:27:01.962Z,65.95
2019-01-24T04:27:35.111Z,69.35
2019-01-24T04:28:08.302Z,65.03
2019-01-24T04:28:41.404Z,67.97
2019-01-24T04:29:14.374Z,63.90
2019-01-24T04:29:47.340Z,65.08
2019-01-24T04:30:22.510Z,64.42
2019-01-24T04:30:56.542Z,66.42
2019-01-24T04:31:29.638Z,64.95
2019-01-24T04:32:02.826Z,64.87
2019-01-24T04:32:35.941Z,63.33
2019-01-24T04:33:08.880Z,63.65
2019-01-24T04:33:43.584Z,65.97
2019-01-24T04:34:16.682Z,66.40
2019-01-24T04:34:49.588Z,62.67
2019-01-24T04:35:22.776Z,66.67
2019-01-24T04:35:55.660Z,61.70
2019-01-24T04:36:28.753Z,65.32
2019-01-24T04:37:01.760Z,62.62
2019-01-24T04:37:34.830Z,62.20
2019-01-24T04:38:07.831Z,67.87
2019-01-24T04:38:40.776Z,66.53
2019-01-24T04:39:13.800Z,65.92
2019-01-24T04:39:47.030Z,65.00
2019-01-24T04:40:20.698Z,63.00
2019-01-24T04:40:53.831Z,61.30
2019-01-24T04:41:26.822Z,66.70
2019-01-24T04:41:59.892Z,66.62
2019-01-24T04:42:32.914Z,64.80
2019-01-24T04:43:06.059Z,65.40
2019-01-24T04:43:39.075Z,66.47
2019-01-24T04:44:12.195Z,65.42
2019-01-24T04:44:45.186Z,67.00
2019-01-24T04:45:18.340Z,65.92
2019-01-24T04:45:51.476Z,65.78
2019-01-24T04:46:24.482Z,62.40
2019-01-24T04:46:57.487Z,64.72
2019-01-24T04:47:30.535Z,67.85
2019-01-24T04:48:03.656Z,67.40
2019-01-24T04:48:36.543Z,69.97
2019-01-24T04:49:09.639Z,67.87
2019-01-24T04:49:42.620Z,65.85
2019-01-24T04:50:16.981Z,69.17
2019-01-24T04:50:50.027Z,69.95
2019-01-24T04:51:23.031Z,65.05
2019-01-24T04:51:56.080Z,67.35
2019-01-24T04:52:29.092Z,62.35
2019-01-24T04:53:02.430Z,66.17
2019-01-24T04:53:35.435Z,70.00
2019-01-24T04:54:08.478Z,64.87
2019-01-24T04:54:41.399Z,69.37
2019-01-24T04:55:19.529Z,62.53
2019-01-24T04:55:52.587Z,70.25
2019-01-24T04:56:27.255Z,69.17
2019-01-24T04:57:00.261Z,64.82
2019-01-24T04:57:33.541Z,68.70
2019-01-24T04:58:06.500Z,63.80
2019-01-24T04:58:39.541Z,67.95
2019-01-24T04:59:12.559Z,70.20
2019-01-24T04:59:45.530Z,69.30
2019-01-24T05:00:25.274Z,69.30
2019-01-24T05:00:58.325Z,67.62
2019-01-24T05:01:31.347Z,70.52
2019-01-24T05:02:04.544Z,66.95
2019-01-24T05:02:37.566Z,63.13
2019-01-24T05:03:10.512Z,68.92
2019-01-24T05:03:43.414Z,68.00
2019-01-24T05:04:16.343Z,65.20
2019-01-24T05:04:49.352Z,66.45
2019-01-24T05:05:27.670Z,68.80
2019-01-24T05:05:57.407Z,67.37
2019-01-24T05:06:30.460Z,69.35
2019-01-24T05:07:03.431Z,67.65
2019-01-24T05:07:36.586Z,72.40
2019-01-24T05:08:09.606Z,70.52
2019-01-24T05:08:42.638Z,69.22
2019-01-24T05:09:15.542Z,71.82
2019-01-24T05:09:48.494Z,70.12
2019-01-24T05:10:21.498Z,71.62
2019-01-24T05:10:54.537Z,72.62
2019-01-24T05:11:27.585Z,74.03
2019-01-24T05:12:00.571Z,69.25
2019-01-24T05:12:33.606Z,68.00
2019-01-24T05:13:06.929Z,69.35
2019-01-24T05:13:39.823Z,70.85
2019-01-24T05:14:12.879Z,70.00
2019-01-24T05:14:45.869Z,70.00
2019-01-24T05:15:19.005Z,69.42
2019-01-24T05:15:51.932Z,70.28
2019-01-24T05:16:24.998Z,71.45
2019-01-24T05:16:58.085Z,75.83
2019-01-24T05:17:31.157Z,68.72
2019-01-24T05:18:04.527Z,72.92
2019-01-24T05:18:37.780Z,72.10
2019-01-24T05:19:10.909Z,74.80
2019-01-24T05:19:44.041Z,68.78
2019-01-24T05:20:17.159Z,70.30
2019-01-24T05:20:50.219Z,68.55
2019-01-24T05:21:24.132Z,74.42
2019-01-24T05:21:57.144Z,71.55
2019-01-24T05:22:30.260Z,74.32
2019-01-24T05:23:03.463Z,73.17
2019-01-24T05:23:36.579Z,74.80
2019-01-24T05:24:09.709Z,74.53
2019-01-24T05:24:42.623Z,73.05
2019-01-24T05:25:16.694Z,71.15
2019-01-24T05:25:49.805Z,70.40
2019-01-24T05:26:22.746Z,68.75
2019-01-24T05:26:55.638Z,66.85
2019-01-24T05:27:28.649Z,75.08
2019-01-24T05:28:01.656Z,72.45
2019-01-24T05:28:34.824Z,73.75
2019-01-24T05:29:07.737Z,71.10
2019-01-24T05:29:40.749Z,69.50
2019-01-24T05:30:21.043Z,66.33
2019-01-24T05:30:53.985Z,72.08
2019-01-24T05:31:26.995Z,74.00
2019-01-24T05:32:00.065Z,71.75
2019-01-24T05:32:33.083Z,74.45
2019-01-24T05:33:06.133Z,72.10
2019-01-24T05:33:39.056Z,69.82
2019-01-24T05:34:12.113Z,71.28
2019-01-24T05:34:45.206Z,73.55
2019-01-24T05:35:18.637Z,72.15
2019-01-24T05:35:51.661Z,74.10
2019-01-24T05:36:24.711Z,71.53
2019-01-24T05:36:57.746Z,76.42
2019-01-24T05:37:31.363Z,73.80
2019-01-24T05:38:04.459Z,69.27
2019-01-24T05:38:37.475Z,71.92
2019-01-24T05:39:10.481Z,70.83
2019-01-24T05:39:45.065Z,70.78
2019-01-24T05:40:18.044Z,71.12
2019-01-24T05:40:51.711Z,72.37
2019-01-24T05:41:24.712Z,72.47
2019-01-24T05:41:59.285Z,72.55
2019-01-24T05:42:32.182Z,64.85
2019-01-24T05:43:05.253Z,73.07
2019-01-24T05:43:38.157Z,64.20
2019-01-24T05:44:11.101Z,69.62
2019-01-24T05:44:44.207Z,65.75
2019-01-24T05:45:17.321Z,72.08
2019-01-24T05:45:50.335Z,66.92
2019-01-24T05:46:23.527Z,70.60
2019-01-24T05:46:56.550Z,75.83
2019-01-24T05:47:29.519Z,71.02
2019-01-24T05:48:02.633Z,68.87
2019-01-24T05:48:35.745Z,72.72
2019-01-24T05:49:08.569Z,71.67
2019-01-24T05:49:41.507Z,71.87
2019-01-24T05:50:14.621Z,72.42
2019-01-24T05:50:48.766Z,68.35
2019-01-24T05:51:21.806Z,73.12
2019-01-24T05:51:54.932Z,70.47
2019-01-24T05:52:27.812Z,69.50
2019-01-24T05:53:02.020Z,72.22
2019-01-24T05:53:34.915Z,73.47
2019-01-24T05:54:08.048Z,68.95
2019-01-24T05:54:41.141Z,73.00
2019-01-24T05:55:14.707Z,71.70
2019-01-24T05:55:47.768Z,70.87
2019-01-24T05:56:20.675Z,70.67
2019-01-24T05:56:53.785Z,70.85
2019-01-24T05:57:26.663Z,72.53
2019-01-24T05:57:59.803Z,71.82
2019-01-24T05:58:32.787Z,69.87
2019-01-24T05:59:06.973Z,69.10
2019-01-24T05:59:39.985Z,71.97
2019-01-24T06:00:21.148Z,69.90
2019-01-24T06:00:54.141Z,73.00
2019-01-24T06:01:27.562Z,72.30
2019-01-24T06:02:00.553Z,73.02
2019-01-24T06:02:34.577Z,76.05
2019-01-24T06:03:07.586Z,72.80
2019-01-24T06:03:40.831Z,73.75
2019-01-24T06:04:14.422Z,69.10
2019-01-24T06:04:47.532Z,71.57
2019-01-24T06:05:20.705Z,68.97
2019-01-24T06:05:53.681Z,67.50
2019-01-24T06:06:26.726Z,73.38
2019-01-24T06:06:59.818Z,72.72
2019-01-24T06:07:34.631Z,68.97
2019-01-24T06:08:07.771Z,70.08
2019-01-24T06:08:40.706Z,72.47
2019-01-24T06:09:13.802Z,73.95
2019-01-24T06:09:46.866Z,70.15
2019-01-24T06:10:19.822Z,70.40
2019-01-24T06:10:52.731Z,76.05
2019-01-24T06:11:25.849Z,79.17
2019-01-24T06:11:58.908Z,74.10
2019-01-24T06:12:31.823Z,74.37
2019-01-24T06:13:04.847Z,74.90
2019-01-24T06:13:37.900Z,71.87
2019-01-24T06:14:10.808Z,71.00
2019-01-24T06:14:43.844Z,73.33
2019-01-24T06:15:17.497Z,68.42
2019-01-24T06:15:51.724Z,73.20
2019-01-24T06:16:24.757Z,69.40
2019-01-24T06:16:57.786Z,68.40
2019-01-24T06:17:32.924Z,70.78
2019-01-24T06:18:06.061Z,71.40
2019-01-24T06:18:40.085Z,75.03
2019-01-24T06:19:13.115Z,72.12
2019-01-24T06:19:46.150Z,75.70
2019-01-24T06:20:19.168Z,71.20
2019-01-24T06:20:52.077Z,73.42
2019-01-24T06:21:24.988Z,69.00
2019-01-24T06:21:58.110Z,76.12
2019-01-24T06:22:31.159Z,72.12
2019-01-24T06:23:04.196Z,76.00
2019-01-24T06:23:37.450Z,70.03
2019-01-24T06:24:10.580Z,71.75
2019-01-24T06:24:43.607Z,72.15
2019-01-24T06:25:16.618Z,73.12
2019-01-24T06:25:49.677Z,72.27
2019-01-24T06:26:22.570Z,70.00
2019-01-24T06:26:56.650Z,69.15
2019-01-24T06:27:29.683Z,72.62
2019-01-24T06:28:03.106Z,73.15
2019-01-24T06:28:36.033Z,71.05
2019-01-24T06:29:09.203Z,70.95
2019-01-24T06:29:42.190Z,75.25
2019-01-24T06:30:17.551Z,72.90
2019-01-24T06:30:50.554Z,70.22
2019-01-24T06:31:23.622Z,73.70
2019-01-24T06:31:56.758Z,72.03
2019-01-24T06:32:29.837Z,73.17
2019-01-24T06:33:02.943Z,70.22
2019-01-24T06:33:35.970Z,76.10
2019-01-24T06:34:08.968Z,75.08
2019-01-24T06:34:43.546Z,71.42
2019-01-24T06:35:16.562Z,72.03
2019-01-24T06:35:49.628Z,74.07
2019-01-24T06:36:22.517Z,76.30
2019-01-24T06:36:55.560Z,72.10
2019-01-24T06:37:28.484Z,71.25
2019-01-24T06:38:01.567Z,72.72
2019-01-24T06:38:34.576Z,74.22
2019-01-24T06:39:08.439Z,70.83
2019-01-24T06:39:41.444Z,68.87
2019-01-24T06:40:14.636Z,75.35
2019-01-24T06:40:47.650Z,73.45
2019-01-24T06:41:20.850Z,76.05
2019-01-24T06:41:53.979Z,69.85
2019-01-24T06:42:26.938Z,70.28
2019-01-24T06:43:00.068Z,68.87
2019-01-24T06:43:33.022Z,73.47
2019-01-24T06:44:06.114Z,70.22
2019-01-24T06:44:39.178Z,69.30
2019-01-24T06:45:18.439Z,70.40
2019-01-24T06:45:51.444Z,72.70
2019-01-24T06:46:24.470Z,71.45
2019-01-24T06:46:57.560Z,69.10
2019-01-24T06:47:30.467Z,70.90
2019-01-24T06:48:03.804Z,70.37
2019-01-24T06:48:36.912Z,70.75
2019-01-24T06:49:09.864Z,68.47
2019-01-24T06:49:42.903Z,74.85
2019-01-24T06:50:17.172Z,72.03
2019-01-24T06:50:50.224Z,68.67
2019-01-24T06:51:23.212Z,68.52
2019-01-24T06:51:56.234Z,76.67
2019-01-24T06:52:29.314Z,71.15
2019-01-24T06:53:02.402Z,75.45
2019-01-24T06:53:35.504Z,71.90
2019-01-24T06:54:08.718Z,71.85
2019-01-24T06:54:41.830Z,66.65
2019-01-24T06:55:20.178Z,71.47
2019-01-24T06:55:53.170Z,70.67
2019-01-24T06:56:26.280Z,69.72
2019-01-24T06:56:59.282Z,72.82
2019-01-24T06:57:32.327Z,68.87
2019-01-24T06:58:05.331Z,71.60
2019-01-24T06:58:38.407Z,71.92
2019-01-24T06:59:11.318Z,74.22
2019-01-24T06:59:44.326Z,70.15
2019-01-24T07:00:17.592Z,71.42
2019-01-24T07:00:50.533Z,72.17
2019-01-24T07:01:23.580Z,75.15
2019-01-24T07:01:56.726Z,70.95
2019-01-24T07:02:29.649Z,72.72
2019-01-24T07:03:02.793Z,71.65
2019-01-24T07:03:35.785Z,71.07
2019-01-24T07:04:08.842Z,71.05
2019-01-24T07:04:41.766Z,71.47
2019-01-24T07:05:15.266Z,71.25
2019-01-24T07:05:48.336Z,72.05
2019-01-24T07:06:21.262Z,72.90
2019-01-24T07:06:54.355Z,72.67
2019-01-24T07:07:27.555Z,70.92
2019-01-24T07:08:00.559Z,72.50
2019-01-24T07:08:35.267Z,72.70
2019-01-24T07:09:08.500Z,72.42